createdAt,value
2023-02-09T00:02:17.357Z,100845.63
2023-02-09T00:04:44.234Z,100858.22
2023-02-09T00:07:11.072Z,100847.59
2023-02-09T00:09:37.941Z,100853.88
2023-02-09T00:12:23.329Z,100860.03
2023-02-09T00:14:50.229Z,100852.22
2023-02-09T00:17:17.018Z,100847.88
2023-02-09T00:19:45.720Z,100860.19
2023-02-09T00:22:12.498Z,100851.22
2023-02-09T00:24:39.323Z,100845.06
2023-02-09T00:27:06.196Z,100834.44
2023-02-09T00:29:33.223Z,100833.59
2023-02-09T00:32:01.429Z,100821.00
2023-02-09T00:34:28.331Z,100832.47
2023-02-09T00:36:55.293Z,100824.50
2023-02-09T00:39:22.134Z,100821.97
2023-02-09T00:42:07.184Z,100821.69
2023-02-09T00:44:36.644Z,100819.41
2023-02-09T00:47:03.998Z,100812.13
2023-02-09T00:49:30.859Z,100816.59
2023-02-09T00:51:59.706Z,100810.13
2023-02-09T00:54:26.533Z,100808.31
2023-02-09T00:56:53.505Z,100809.00
2023-02-09T00:59:20.352Z,100806.03
2023-02-09T01:01:47.212Z,100815.69
2023-02-09T01:04:14.669Z,100815.53
2023-02-09T01:06:41.771Z,100812.88
2023-02-09T01:09:08.662Z,100805.06
2023-02-09T01:11:39.514Z,100808.56
2023-02-09T01:14:06.327Z,100791.75
2023-02-09T01:16:33.258Z,100792.59
2023-02-09T01:19:01.395Z,100803.38
2023-02-09T01:21:29.587Z,100812.50
2023-02-09T01:23:56.851Z,100806.34
2023-02-09T01:26:23.628Z,100803.53
2023-02-09T01:28:52.787Z,100803.94
2023-02-09T01:31:21.770Z,100796.34
2023-02-09T01:33:50.441Z,100791.88
2023-02-09T01:36:17.342Z,100795.91
2023-02-09T01:38:44.388Z,100792.25
2023-02-09T01:41:14.534Z,100795.91
2023-02-09T01:43:51.914Z,100792.41
2023-02-09T01:46:19.599Z,100788.91
2023-02-09T01:48:47.049Z,100789.88
2023-02-09T01:51:15.424Z,100789.34
2023-02-09T01:53:43.583Z,100792.16
2023-02-09T01:56:13.349Z,100792.84
2023-02-09T01:58:40.250Z,100791.56
2023-02-09T02:01:07.232Z,100792.94
2023-02-09T02:03:34.168Z,100795.28
2023-02-09T02:06:05.279Z,100795.97
2023-02-09T02:08:38.145Z,100793.31
2023-02-09T02:11:05.742Z,100795.97
2023-02-09T02:13:32.574Z,100786.31
2023-02-09T02:16:04.507Z,100793.31
2023-02-09T02:18:42.848Z,100793.31
2023-02-09T02:21:19.496Z,100794.44
2023-02-09T02:24:05.133Z,100795.75
2023-02-09T02:26:48.676Z,100803.03
2023-02-09T02:29:35.499Z,100803.03
2023-02-09T02:32:20.613Z,100810.03
2023-02-09T02:34:51.837Z,100809.03
2023-02-09T02:37:24.658Z,100802.72
2023-02-09T02:39:51.515Z,100803.88
2023-02-09T02:42:48.778Z,100804.88
2023-02-09T02:45:21.880Z,100807.53
2023-02-09T02:48:06.050Z,100800.38
2023-02-09T02:50:35.202Z,100791.56
2023-02-09T02:53:04.439Z,100796.88
2023-02-09T02:55:32.882Z,100805.00
2023-02-09T02:58:02.931Z,100800.97
2023-02-09T03:00:36.646Z,100805.63
2023-02-09T03:03:12.228Z,100808.97
2023-02-09T03:05:39.225Z,100799.69
2023-02-09T03:08:06.077Z,100792.41
2023-02-09T03:10:37.936Z,100793.91
2023-02-09T03:13:09.398Z,100794.75
2023-02-09T03:15:36.192Z,100787.75
2023-02-09T03:18:15.307Z,100798.41
2023-02-09T03:20:45.998Z,100786.25
2023-02-09T03:23:20.436Z,100791.25
2023-02-09T03:25:48.792Z,100791.09
2023-02-09T03:28:22.706Z,100791.78
2023-02-09T03:30:50.585Z,100797.78
2023-02-09T03:33:22.120Z,100793.84
2023-02-09T03:35:50.387Z,100791.88
2023-02-09T03:38:17.295Z,100780.91
2023-02-09T03:40:47.840Z,100789.31
2023-02-09T03:43:14.900Z,100785.50
2023-02-09T03:45:41.747Z,100789.53
2023-02-09T03:48:08.560Z,100792.88
2023-02-09T03:50:36.381Z,100791.03
2023-02-09T03:53:06.685Z,100786.25
2023-02-09T03:55:34.002Z,100789.59
2023-02-09T03:58:00.867Z,100793.09
2023-02-09T04:00:27.760Z,100793.09
2023-02-09T04:02:54.632Z,100784.78
2023-02-09T04:05:23.072Z,100774.81
2023-02-09T04:07:51.513Z,100775.34
2023-02-09T04:10:19.963Z,100779.41
2023-02-09T04:12:49.247Z,100786.25
2023-02-09T04:16:03.566Z,100783.41
2023-02-09T04:18:38.141Z,100773.75
2023-02-09T04:21:14.680Z,100778.41
2023-02-09T04:23:46.077Z,100776.44
2023-02-09T04:26:14.230Z,100777.94
2023-02-09T04:28:41.788Z,100780.13
2023-02-09T04:31:10.622Z,100775.66
2023-02-09T04:33:42.715Z,100786.75
2023-02-09T04:36:13.159Z,100781.75
2023-02-09T04:42:49.329Z,100775.91
2023-02-09T04:48:47.375Z,100791.47
2023-02-09T04:51:16.886Z,100787.81
2023-02-09T04:53:44.151Z,100782.31
2023-02-09T04:59:51.320Z,100774.34
2023-02-09T05:02:18.315Z,100779.66
2023-02-09T05:04:45.176Z,100772.50
2023-02-09T05:07:12.056Z,100774.03
2023-02-09T05:09:38.822Z,100771.03
2023-02-09T05:12:08.457Z,100774.38
2023-02-09T05:14:35.621Z,100767.06
2023-02-09T05:17:02.752Z,100764.97
2023-02-09T05:19:29.886Z,100767.47
2023-02-09T05:21:57.689Z,100766.47
2023-02-09T05:24:26.779Z,100761.16
2023-02-09T05:26:53.774Z,100764.66
2023-02-09T05:29:22.216Z,100776.97
2023-02-09T05:31:49.322Z,100764.66
2023-02-09T05:34:16.373Z,100764.66
2023-02-09T05:36:43.303Z,100768.31
2023-02-09T05:39:10.354Z,100768.16
2023-02-09T05:41:56.007Z,100771.50
2023-02-09T05:44:23.131Z,100780.00
2023-02-09T05:46:50.306Z,100790.50
2023-02-09T05:49:17.326Z,100785.84
2023-02-09T05:51:44.292Z,100776.88
2023-02-09T05:54:11.195Z,100769.03
2023-02-09T05:56:38.288Z,100773.69
2023-02-09T05:59:05.338Z,100772.00
2023-02-09T06:01:32.409Z,100775.97
2023-02-09T06:03:59.598Z,100785.97
2023-02-09T06:06:26.486Z,100783.63
2023-02-09T06:08:53.498Z,100783.63
2023-02-09T06:11:20.374Z,100787.13
2023-02-09T06:13:47.198Z,100780.63
2023-02-09T06:16:14.117Z,100775.66
2023-02-09T06:18:41.144Z,100782.34
2023-02-09T06:21:11.876Z,100775.88
2023-02-09T06:23:38.901Z,100773.88
2023-02-09T06:26:11.898Z,100772.88
2023-02-09T06:28:39.077Z,100760.25
2023-02-09T06:31:06.566Z,100769.22
2023-02-09T06:33:34.081Z,100771.75
2023-02-09T06:36:01.392Z,100768.06
2023-02-09T06:38:30.374Z,100775.25
2023-02-09T06:40:57.418Z,100763.91
2023-02-09T06:43:24.286Z,100751.41
2023-02-09T06:45:51.252Z,100753.25
2023-02-09T06:48:18.164Z,100746.28
2023-02-09T06:50:47.049Z,100754.66
2023-02-09T06:53:14.237Z,100757.69
2023-02-09T06:55:41.230Z,100761.84
2023-02-09T06:58:08.070Z,100759.34
2023-02-09T07:00:37.820Z,100756.69
2023-02-09T07:03:04.925Z,100757.69
2023-02-09T07:05:31.835Z,100755.19
2023-02-09T07:07:58.840Z,100757.16
2023-02-09T07:10:25.665Z,100754.50
2023-02-09T07:12:52.561Z,100750.16
2023-02-09T07:15:19.520Z,100760.50
2023-02-09T07:17:46.382Z,100762.69
2023-02-09T07:20:13.635Z,100764.19
2023-02-09T07:22:41.194Z,100767.91
2023-02-09T07:25:12.438Z,100768.09
2023-02-09T07:27:42.748Z,100767.31
2023-02-09T07:30:10.430Z,100756.84
2023-02-09T07:32:40.393Z,100762.34
2023-02-09T07:35:07.518Z,100761.41
2023-02-09T07:37:37.716Z,100759.44
2023-02-09T07:40:04.728Z,100757.59
2023-02-09T07:42:31.580Z,100759.28
2023-02-09T07:45:10.067Z,100753.31
2023-02-09T07:47:38.963Z,100752.66
2023-02-09T07:50:25.156Z,100753.50
2023-02-09T07:53:22.490Z,100742.81
2023-02-09T07:55:52.441Z,100748.69
2023-02-09T07:58:26.017Z,100747.84
2023-02-09T08:00:53.324Z,100743.50
2023-02-09T08:03:21.552Z,100743.97
2023-02-09T08:05:53.070Z,100748.66
2023-02-09T08:08:20.051Z,100748.16
2023-02-09T08:10:50.525Z,100758.31
2023-02-09T08:13:17.795Z,100757.00
2023-02-09T08:15:54.687Z,100750.34
2023-02-09T08:18:36.440Z,100742.16
2023-02-09T08:21:05.109Z,100752.19
2023-02-09T08:23:33.835Z,100752.19
2023-02-09T08:26:05.152Z,100747.34
2023-02-09T08:28:43.667Z,100752.34
2023-02-09T08:31:16.513Z,100750.84
2023-02-09T08:33:44.376Z,100749.84
2023-02-09T08:36:18.189Z,100746.19
2023-02-09T08:38:47.419Z,100743.69
2023-02-09T08:41:15.340Z,100747.53
2023-02-09T08:43:42.588Z,100746.19
2023-02-09T08:46:10.733Z,100746.34
2023-02-09T08:48:39.314Z,100747.66
2023-02-09T08:51:11.081Z,100743.31
2023-02-09T08:53:43.450Z,100748.81
2023-02-09T08:56:14.189Z,100750.16
2023-02-09T08:58:46.492Z,100739.94
2023-02-09T09:01:14.086Z,100743.78
2023-02-09T09:03:42.458Z,100740.28
2023-02-09T09:06:11.218Z,100739.78
2023-02-09T09:08:39.702Z,100741.63
2023-02-09T09:11:07.581Z,100733.28
2023-02-09T09:13:34.716Z,100746.28
2023-02-09T09:16:03.721Z,100734.94
2023-02-09T09:18:32.501Z,100735.94
2023-02-09T09:20:59.557Z,100737.09
2023-02-09T09:23:26.589Z,100733.22
2023-02-09T09:25:53.782Z,100728.72
2023-02-09T09:28:20.984Z,100728.38
2023-02-09T09:30:48.982Z,100729.56
2023-02-09T09:33:24.781Z,100735.38
2023-02-09T09:35:51.821Z,100731.34
2023-02-09T09:38:26.137Z,100735.84
2023-02-09T09:40:54.756Z,100735.97
2023-02-09T09:43:26.028Z,100731.75
2023-02-09T09:45:57.925Z,100725.91
2023-02-09T09:48:27.912Z,100722.91
2023-02-09T09:51:01.193Z,100719.88
2023-02-09T09:53:33.418Z,100718.50
2023-02-09T09:56:08.228Z,100717.31
2023-02-09T09:59:05.602Z,100712.44
2023-02-09T10:02:03.161Z,100702.94
2023-02-09T10:04:43.942Z,100701.78
2023-02-09T10:07:19.107Z,100702.84
2023-02-09T10:09:48.419Z,100706.69
2023-02-09T10:15:34.688Z,100700.06
2023-02-09T10:18:09.717Z,100703.91
2023-02-09T10:20:58.481Z,100700.94
2023-02-09T10:23:46.800Z,100692.78
2023-02-09T10:26:21.938Z,100688.75
2023-02-09T10:28:51.213Z,100690.41
2023-02-09T10:31:27.824Z,100698.78
2023-02-09T10:34:01.421Z,100697.59
2023-02-09T10:36:31.932Z,100683.88
2023-02-09T10:39:18.052Z,100696.38
2023-02-09T10:41:47.274Z,100683.66
2023-02-09T10:44:19.892Z,100688.19
2023-02-09T10:46:50.936Z,100676.00
2023-02-09T10:49:59.688Z,100679.19
2023-02-09T10:52:35.964Z,100686.91
2023-02-09T10:55:15.197Z,100677.38
2023-02-09T10:57:42.412Z,100667.03
2023-02-09T11:00:35.412Z,100670.03
2023-02-09T11:03:03.479Z,100667.22
2023-02-09T11:05:36.073Z,100653.91
2023-02-09T11:08:24.897Z,100663.25
2023-02-09T11:10:52.103Z,100664.56
2023-02-09T11:13:22.145Z,100654.16
2023-02-09T11:16:12.099Z,100652.00
2023-02-09T11:18:40.872Z,100655.00
2023-02-09T11:21:30.754Z,100657.66
2023-02-09T11:24:03.791Z,100659.50
2023-02-09T11:26:36.738Z,100658.66
2023-02-09T11:29:31.270Z,100655.50
2023-02-09T11:32:16.352Z,100656.19
2023-02-09T11:34:43.182Z,100649.16
2023-02-09T11:37:23.670Z,100645.66
2023-02-09T11:39:56.729Z,100647.34
2023-02-09T11:42:46.284Z,100646.50
2023-02-09T11:45:19.308Z,100642.16
2023-02-09T11:47:52.607Z,100647.84
2023-02-09T11:50:43.967Z,100654.56
2023-02-09T11:53:23.833Z,100647.38
2023-02-09T11:55:56.310Z,100646.38
2023-02-09T11:58:43.787Z,100648.03
2023-02-09T12:01:22.840Z,100640.72
2023-02-09T12:04:15.147Z,100643.25
2023-02-09T12:06:45.053Z,100647.75
2023-02-09T12:09:20.198Z,100641.09
2023-02-09T12:11:51.878Z,100651.13
2023-02-09T12:14:18.711Z,100649.47
2023-02-09T12:16:49.845Z,100651.28
2023-02-09T12:19:24.882Z,100649.13
2023-02-09T12:21:51.786Z,100640.97
2023-02-09T12:24:39.403Z,100647.69
2023-02-09T12:27:23.281Z,100636.81
2023-02-09T12:29:50.144Z,100651.50
2023-02-09T12:32:43.482Z,100644.50
2023-02-09T12:35:27.431Z,100641.16
2023-02-09T12:38:08.950Z,100637.47
2023-02-09T12:40:37.561Z,100637.13
2023-02-09T12:43:12.623Z,100638.63
2023-02-09T12:45:40.841Z,100641.13
2023-02-09T12:48:07.741Z,100631.63
2023-02-09T12:50:45.717Z,100626.28
2023-02-09T12:53:21.804Z,100628.59
2023-02-09T12:56:13.061Z,100634.78
2023-02-09T12:58:55.275Z,100629.44
2023-02-09T13:01:54.442Z,100624.25
2023-02-09T13:04:37.867Z,100632.28
2023-02-09T13:07:19.227Z,100635.13
2023-02-09T13:13:45.745Z,100622.59
2023-02-09T13:20:42.304Z,100607.75
2023-02-09T13:23:34.839Z,100610.41
2023-02-09T13:26:30.313Z,100605.91
2023-02-09T13:29:41.862Z,100610.41
2023-02-09T13:32:12.090Z,100606.25
2023-02-09T13:48:12.897Z,100600.75
2023-02-09T13:55:35.005Z,100590.72
2023-02-09T13:58:04.897Z,100585.53
2023-02-09T14:00:42.686Z,100590.88
2023-02-09T14:03:15.379Z,100582.88
2023-02-09T14:06:01.210Z,100585.72
2023-02-09T14:08:29.486Z,100595.56
2023-02-09T14:11:10.057Z,100594.56
2023-02-09T14:13:41.236Z,100584.06
2023-02-09T14:16:51.592Z,100580.06
2023-02-09T14:19:30.301Z,100575.72
2023-02-09T14:22:02.083Z,100581.06
2023-02-09T14:24:41.095Z,100577.53
2023-02-09T14:27:27.967Z,100580.19
2023-02-09T14:29:55.940Z,100567.19
2023-02-09T14:32:37.837Z,100567.53
2023-02-09T14:35:19.649Z,100569.38
2023-02-09T14:37:52.267Z,100568.38
2023-02-09T14:40:21.983Z,100570.88
2023-02-09T14:46:19.268Z,100554.66
2023-02-09T14:49:28.031Z,100561.84
2023-02-09T14:52:03.583Z,100554.00
2023-02-09T14:57:52.153Z,100544.16
2023-02-09T15:00:36.572Z,100557.69
2023-02-09T15:03:04.762Z,100552.53
2023-02-09T15:05:33.326Z,100547.19
2023-02-09T15:08:09.026Z,100542.00
2023-02-09T15:10:38.504Z,100542.00
2023-02-09T15:13:06.075Z,100549.19
2023-02-09T15:15:37.916Z,100542.19
2023-02-09T15:18:07.879Z,100543.19
2023-02-09T15:20:46.436Z,100538.03
2023-02-09T15:23:20.905Z,100540.03
2023-02-09T15:25:48.133Z,100536.69
2023-02-09T15:28:28.564Z,100536.88
2023-02-09T15:30:56.847Z,100534.38
2023-02-09T15:33:25.552Z,100540.91
2023-02-09T15:35:53.325Z,100536.91
2023-02-09T15:38:20.625Z,100537.09
2023-02-09T15:41:07.633Z,100534.25
2023-02-09T15:43:53.346Z,100544.09
2023-02-09T15:46:41.571Z,100548.59
2023-02-09T15:49:17.836Z,100532.72
2023-02-09T15:51:56.753Z,100534.72
2023-02-09T15:54:30.274Z,100537.75
2023-02-09T15:57:02.656Z,100530.91
2023-02-09T15:59:30.229Z,100529.25
2023-02-09T16:02:00.001Z,100532.09
2023-02-09T16:04:28.181Z,100526.25
2023-02-09T16:07:01.212Z,100535.09
2023-02-09T16:09:34.087Z,100539.44
2023-02-09T16:12:03.584Z,100520.91
2023-02-09T16:14:34.559Z,100526.25
2023-02-09T16:17:01.910Z,100528.09
2023-02-09T16:19:46.027Z,100528.09
2023-02-09T16:22:13.536Z,100530.59
2023-02-09T16:24:57.564Z,100525.25
2023-02-09T16:27:29.968Z,100520.91
2023-02-09T16:29:58.500Z,100519.25
2023-02-09T16:32:27.703Z,100520.91
2023-02-09T16:34:57.766Z,100515.56
2023-02-09T16:37:32.946Z,100519.25
2023-02-09T16:40:01.810Z,100515.75
2023-02-09T16:42:32.110Z,100517.59
2023-02-09T16:45:00.222Z,100514.09
2023-02-09T16:47:28.149Z,100510.41
2023-02-09T16:49:59.679Z,100507.75
2023-02-09T16:52:27.616Z,100509.75
2023-02-09T16:54:56.739Z,100503.59
2023-02-09T16:57:27.021Z,100503.94
2023-02-09T16:59:55.120Z,100508.59
2023-02-09T17:02:22.215Z,100503.44
2023-02-09T17:04:49.248Z,100502.59
2023-02-09T17:07:16.463Z,100501.78
2023-02-09T17:09:43.553Z,100496.44
2023-02-09T17:12:12.097Z,100503.09
2023-02-09T17:14:39.117Z,100489.91
2023-02-09T17:17:06.403Z,100496.59
2023-02-09T17:19:47.060Z,100487.09
2023-02-09T17:22:15.241Z,100477.59
2023-02-09T17:24:43.072Z,100478.25
2023-02-09T17:27:10.724Z,100472.94
2023-02-09T17:29:37.846Z,100476.44
2023-02-09T17:32:05.604Z,100466.41
2023-02-09T17:34:32.652Z,100473.59
2023-02-09T17:37:00.468Z,100464.75
2023-02-09T17:39:30.697Z,100468.25
2023-02-09T17:50:48.764Z,100454.25
2023-02-09T17:53:21.466Z,100457.91
2023-02-09T17:55:56.438Z,100452.75
2023-02-09T17:58:24.427Z,100450.25
2023-02-09T18:00:53.456Z,100455.78
2023-02-09T18:03:23.386Z,100449.94
2023-02-09T18:06:04.375Z,100444.13
2023-02-09T18:08:34.052Z,100447.47
2023-02-09T18:11:56.679Z,100432.78
2023-02-09T18:14:28.464Z,100436.63
2023-02-09T18:16:56.660Z,100437.47
2023-02-09T18:23:45.103Z,100427.97
2023-02-09T18:26:12.315Z,100422.81
2023-02-09T18:30:24.355Z,100415.63
2023-02-09T18:32:26.926Z,100418.31
2023-02-09T18:34:54.489Z,100417.28
2023-02-09T18:37:23.369Z,100412.97
2023-02-09T18:39:55.238Z,100419.97
2023-02-09T18:42:26.763Z,100413.97
2023-02-09T18:44:53.968Z,100406.31
2023-02-09T18:47:22.297Z,100410.16
2023-02-09T18:49:49.421Z,100400.50
2023-02-09T18:56:04.238Z,100394.16
2023-02-09T18:58:31.264Z,100401.31
2023-02-09T19:01:01.412Z,100397.81
2023-02-09T19:03:32.430Z,100396.16
2023-02-09T19:05:59.439Z,100394.00
2023-02-09T19:08:26.617Z,100390.31
2023-02-09T19:10:53.929Z,100385.69
2023-02-09T19:13:22.765Z,100383.19
2023-02-09T19:15:50.173Z,100385.84
2023-02-09T19:18:17.360Z,100374.19
2023-02-09T19:20:46.847Z,100376.84
2023-02-09T19:23:14.500Z,100369.84
2023-02-09T19:25:49.210Z,100367.00
2023-02-09T19:28:19.451Z,100364.34
2023-02-09T19:30:48.781Z,100364.53
2023-02-09T19:33:41.588Z,100364.88
2023-02-09T19:36:09.284Z,100358.03
2023-02-09T19:38:39.456Z,100360.69
2023-02-09T19:41:12.075Z,100345.53
2023-02-09T19:43:40.655Z,100355.38
2023-02-09T19:46:08.159Z,100344.06
2023-02-09T19:48:35.084Z,100359.88
2023-02-09T19:51:01.948Z,100338.53
2023-02-09T19:53:29.188Z,100345.88
2023-02-09T19:55:57.536Z,100334.56
2023-02-09T19:58:27.822Z,100334.56
2023-02-09T20:00:56.226Z,100324.72
2023-02-09T20:03:26.613Z,100320.22
2023-02-09T20:06:33.675Z,100318.56
2023-02-09T20:09:24.041Z,100313.59
2023-02-09T20:11:51.057Z,100305.59
2023-02-09T20:14:18.261Z,100316.91
2023-02-09T20:16:45.354Z,100312.06
2023-02-09T20:19:54.659Z,100309.41
2023-02-09T20:26:54.725Z,100300.41
2023-02-09T20:29:22.782Z,100294.91
2023-02-09T20:31:49.840Z,100300.75
2023-02-09T20:34:16.709Z,100301.25
2023-02-09T20:36:48.342Z,100303.25
2023-02-09T20:39:18.512Z,100300.44
2023-02-09T20:42:06.083Z,100289.94
2023-02-09T20:44:52.314Z,100284.78
2023-02-09T20:47:19.440Z,100292.59
2023-02-09T20:49:46.386Z,100289.09
2023-02-09T20:52:17.803Z,100285.09
2023-02-09T20:54:47.229Z,100290.59
2023-02-09T20:57:14.066Z,100279.75
2023-02-09T20:59:40.925Z,100279.44
2023-02-09T21:02:07.813Z,100276.28
2023-02-09T21:04:34.696Z,100270.59
2023-02-09T21:07:04.310Z,100269.41
2023-02-09T21:09:31.454Z,100269.25
2023-02-09T21:11:58.334Z,100268.25
2023-02-09T21:14:41.206Z,100267.06
2023-02-09T21:17:08.739Z,100258.06
2023-02-09T21:19:35.510Z,100259.72
2023-02-09T21:22:03.495Z,100255.22
2023-02-09T21:24:30.490Z,100247.22
2023-02-09T21:26:57.304Z,100253.41
2023-02-09T21:29:24.164Z,100247.22
2023-02-09T21:31:52.223Z,100234.56
2023-02-09T21:34:19.241Z,100238.06
2023-02-09T21:36:46.150Z,100240.91
2023-02-09T21:39:13.354Z,100233.91
2023-02-09T21:41:58.673Z,100235.38
2023-02-09T21:44:25.639Z,100232.56
2023-02-09T21:46:54.071Z,100222.72
2023-02-09T21:49:21.220Z,100216.91
2023-02-09T21:51:48.073Z,100215.41
2023-02-09T21:54:16.093Z,100208.44
2023-02-09T21:56:43.535Z,100215.41
2023-02-09T21:59:10.515Z,100218.09
2023-02-09T22:01:38.298Z,100204.94
2023-02-09T22:04:05.208Z,100203.09
2023-02-09T22:06:32.098Z,100203.44
2023-02-09T22:09:02.587Z,100196.44
2023-02-09T22:11:29.593Z,100198.28
2023-02-09T22:13:56.709Z,100194.63
2023-02-09T22:16:24.073Z,100190.78
2023-02-09T22:18:51.222Z,100195.94
2023-02-09T22:21:18.183Z,100188.09
2023-02-09T22:23:44.974Z,100184.66
2023-02-09T22:26:14.023Z,100176.19
2023-02-09T22:28:41.706Z,100179.69
2023-02-09T22:31:13.599Z,100176.34
2023-02-09T22:33:40.529Z,100173.19
2023-02-09T22:36:08.987Z,100161.69
2023-02-09T22:38:36.341Z,100159.03
2023-02-09T22:41:04.723Z,100157.38
2023-02-09T22:43:33.852Z,100156.88
2023-02-09T22:46:00.570Z,100153.56
2023-02-09T22:48:27.466Z,100152.38
2023-02-09T22:50:54.299Z,100145.03
2023-02-09T22:53:21.184Z,100141.38
2023-02-09T22:55:49.558Z,100144.22
2023-02-09T22:58:16.540Z,100143.72
2023-02-09T23:00:43.425Z,100138.94
2023-02-09T23:03:10.270Z,100138.97
2023-02-09T23:05:37.075Z,100118.34
2023-02-09T23:08:03.911Z,100117.69
2023-02-09T23:10:30.749Z,100118.69
2023-02-09T23:12:57.521Z,100113.53
2023-02-09T23:15:24.293Z,100111.19
2023-02-09T23:17:51.100Z,100109.53
2023-02-09T23:20:17.995Z,100114.88
2023-02-09T23:22:44.791Z,100106.06
2023-02-09T23:25:11.559Z,100110.06
2023-02-09T23:27:39.648Z,100097.44
2023-02-09T23:30:06.913Z,100104.13
2023-02-09T23:32:33.623Z,100095.66
2023-02-09T23:37:37.567Z,100098.97
2023-02-09T23:40:05.051Z,100099.47
2023-02-09T23:42:31.941Z,100075.22
2023-02-09T23:44:58.701Z,100067.75
2023-02-09T23:47:25.552Z,100071.41
2023-02-09T23:49:52.562Z,100064.09
2023-02-09T23:52:19.608Z,100060.91
2023-02-09T23:54:46.354Z,100059.56
2023-02-09T23:57:13.213Z,100050.06
2023-02-09T23:59:40.050Z,100038.06
